createdAt,value
2023-05-17T00:00:12.737Z,98692.53
2023-05-17T00:02:41.328Z,98699.91
2023-05-17T00:05:12.252Z,98705.50
2023-05-17T00:07:41.756Z,98701.78
2023-05-17T00:10:11.359Z,98707.34
2023-05-17T00:12:40.404Z,98709.66
2023-05-17T00:15:11.514Z,98715.41
2023-05-17T00:17:40.041Z,98712.31
2023-05-17T00:20:09.798Z,98705.78
2023-05-17T00:22:38.671Z,98709.72
2023-05-17T00:25:09.636Z,98712.00
2023-05-17T00:27:38.184Z,98712.34
2023-05-17T00:30:09.240Z,98710.28
2023-05-17T00:32:39.147Z,98713.38
2023-05-17T00:35:09.137Z,98709.47
2023-05-17T00:37:37.663Z,98715.84
2023-05-17T00:40:08.051Z,98718.00
2023-05-17T00:42:37.597Z,98718.28
2023-05-17T00:45:08.000Z,98717.00
2023-05-17T00:47:36.587Z,98712.94
2023-05-17T00:50:08.434Z,98721.06
2023-05-17T00:52:37.495Z,98724.50
2023-05-17T00:55:08.071Z,98717.50
2023-05-17T00:57:37.857Z,98723.88
2023-05-17T01:00:08.774Z,98721.75
2023-05-17T01:02:37.977Z,98720.00
2023-05-17T01:05:08.942Z,98711.50
2023-05-17T01:07:37.433Z,98717.03
2023-05-17T01:10:08.097Z,98720.00
2023-05-17T01:12:56.923Z,98721.97
2023-05-17T01:15:32.957Z,98723.28
2023-05-17T01:18:15.722Z,98720.16
2023-05-17T01:20:48.832Z,98725.88
2023-05-17T01:23:46.370Z,98721.81
2023-05-17T01:26:22.304Z,98735.19
2023-05-17T01:28:58.085Z,98729.97
2023-05-17T01:31:29.098Z,98722.59
2023-05-17T01:33:59.010Z,98732.41
2023-05-17T01:36:27.799Z,98727.34
2023-05-17T01:38:56.738Z,98727.66
2023-05-17T01:41:35.070Z,98730.44
2023-05-17T01:44:18.841Z,98733.53
2023-05-17T01:46:48.183Z,98734.69
2023-05-17T01:49:25.960Z,98733.38
2023-05-17T01:52:07.951Z,98736.63
2023-05-17T01:54:44.656Z,98737.75
2023-05-17T01:57:16.342Z,98734.03
2023-05-17T01:59:51.137Z,98732.03
2023-05-17T02:02:22.568Z,98727.13
2023-05-17T02:04:51.672Z,98740.19
2023-05-17T02:07:20.307Z,98738.53
2023-05-17T02:09:48.924Z,98740.00
2023-05-17T02:12:17.984Z,98736.56
2023-05-17T02:14:48.200Z,98741.16
2023-05-17T02:17:17.779Z,98737.88
2023-05-17T02:19:46.309Z,98741.47
2023-05-17T02:22:15.094Z,98746.69
2023-05-17T02:24:44.227Z,98744.91
2023-05-17T02:27:12.939Z,98739.84
2023-05-17T02:29:41.933Z,98753.03
2023-05-17T02:32:12.663Z,98756.94
2023-05-17T02:34:41.177Z,98754.63
2023-05-17T02:37:09.723Z,98756.91
2023-05-17T02:39:38.795Z,98767.81
2023-05-17T02:42:08.143Z,98766.03
2023-05-17T02:44:36.715Z,98769.75
2023-05-17T02:47:05.870Z,98773.34
2023-05-17T02:49:37.251Z,98763.88
2023-05-17T02:52:06.659Z,98764.03
2023-05-17T02:54:35.273Z,98765.19
2023-05-17T02:57:04.639Z,98767.94
2023-05-17T02:59:33.762Z,98765.47
2023-05-17T03:02:02.343Z,98774.28
2023-05-17T03:04:30.832Z,98773.47
2023-05-17T03:07:01.550Z,98764.19
2023-05-17T03:09:30.977Z,98764.19
2023-05-17T03:12:00.151Z,98757.00
2023-05-17T03:14:29.808Z,98753.44
2023-05-17T03:16:59.059Z,98757.66
2023-05-17T03:19:27.782Z,98766.47
2023-05-17T03:21:56.780Z,98770.03
2023-05-17T03:24:27.698Z,98766.47
2023-05-17T03:26:56.999Z,98775.25
2023-05-17T03:29:25.597Z,98772.66
2023-05-17T03:31:55.336Z,98778.00
2023-05-17T03:34:23.942Z,98771.00
2023-05-17T03:36:53.721Z,98774.59
2023-05-17T03:39:22.218Z,98773.78
2023-05-17T03:41:53.152Z,98777.66
2023-05-17T03:44:23.845Z,98779.59
2023-05-17T03:46:52.349Z,98783.03
2023-05-17T03:49:21.908Z,98780.41
2023-05-17T03:51:51.103Z,98779.59
2023-05-17T03:54:20.292Z,98786.63
2023-05-17T03:56:50.287Z,98783.03
2023-05-17T03:59:20.952Z,98791.34
2023-05-17T04:01:50.120Z,98783.66
2023-05-17T04:04:18.710Z,98783.00
2023-05-17T04:06:47.860Z,98783.81
2023-05-17T04:09:17.493Z,98787.41
2023-05-17T04:11:46.210Z,98795.03
2023-05-17T04:14:15.754Z,98795.22
2023-05-17T04:16:46.710Z,98794.41
2023-05-17T04:19:16.471Z,98804.81
2023-05-17T04:21:47.305Z,98803.19
2023-05-17T04:24:15.785Z,98805.78
2023-05-17T04:26:45.266Z,98805.78
2023-05-17T04:29:14.948Z,98818.81
2023-05-17T04:31:47.179Z,98814.59
2023-05-17T04:34:16.491Z,98812.94
2023-05-17T04:36:45.720Z,98819.13
2023-05-17T04:39:14.944Z,98825.81
2023-05-17T04:41:43.502Z,98823.06
2023-05-17T04:44:12.581Z,98821.94
2023-05-17T04:46:42.014Z,98818.38
2023-05-17T04:49:13.689Z,98827.66
2023-05-17T04:51:42.367Z,98828.97
2023-05-17T04:54:11.442Z,98836.81
2023-05-17T04:56:41.305Z,98841.56
2023-05-17T04:59:11.084Z,98846.59
2023-05-17T05:01:39.679Z,98847.94
2023-05-17T05:04:08.386Z,98846.78
2023-05-17T05:06:38.943Z,98854.47
2023-05-17T05:09:07.678Z,98853.19
2023-05-17T05:11:37.084Z,98858.91
2023-05-17T05:14:06.265Z,98859.44
2023-05-17T05:16:34.862Z,98857.16
2023-05-17T05:19:04.422Z,98866.16
2023-05-17T05:21:34.498Z,98865.84
2023-05-17T05:24:05.104Z,98876.63
2023-05-17T05:26:33.741Z,98868.47
2023-05-17T05:29:02.303Z,98877.81
2023-05-17T05:31:31.353Z,98878.00
2023-05-17T05:33:59.915Z,98878.50
2023-05-17T05:36:29.324Z,98891.88
2023-05-17T05:38:57.811Z,98883.56
2023-05-17T05:41:27.724Z,98882.94
2023-05-17T05:43:56.667Z,98896.34
2023-05-17T05:46:26.075Z,98882.00
2023-05-17T05:48:54.704Z,98887.41
2023-05-17T05:51:23.229Z,98893.94
2023-05-17T05:53:51.684Z,98900.97
2023-05-17T05:56:20.246Z,98895.22
2023-05-17T05:58:50.580Z,98904.88
2023-05-17T06:01:19.228Z,98899.53
2023-05-17T06:03:47.918Z,98900.03
2023-05-17T06:06:19.568Z,98902.94
2023-05-17T06:08:50.288Z,98904.28
2023-05-17T06:11:20.763Z,98906.41
2023-05-17T06:13:50.653Z,98907.22
2023-05-17T06:16:19.256Z,98910.97
2023-05-17T06:18:51.035Z,98911.81
2023-05-17T06:21:19.819Z,98915.44
2023-05-17T06:23:48.925Z,98922.75
2023-05-17T06:26:17.491Z,98926.53
2023-05-17T06:28:46.113Z,98928.03
2023-05-17T06:31:16.961Z,98923.31
2023-05-17T06:33:46.243Z,98927.38
2023-05-17T06:36:15.791Z,98941.13
2023-05-17T06:38:44.361Z,98936.88
2023-05-17T06:41:13.437Z,98944.69
2023-05-17T06:43:42.680Z,98945.53
2023-05-17T06:46:11.189Z,98950.75
2023-05-17T06:48:41.450Z,98951.56
2023-05-17T06:51:10.786Z,98948.97
2023-05-17T06:53:39.303Z,98947.47
2023-05-17T06:56:08.568Z,98954.84
2023-05-17T06:58:37.081Z,98952.53
2023-05-17T07:01:06.063Z,98963.66
2023-05-17T07:03:35.224Z,98948.28
2023-05-17T07:06:06.032Z,98945.19
2023-05-17T07:08:34.488Z,98947.97
2023-05-17T07:11:04.417Z,98946.66
2023-05-17T07:13:33.351Z,98954.50
2023-05-17T07:16:01.860Z,98958.63
2023-05-17T07:18:30.471Z,98952.22
2023-05-17T07:20:59.080Z,98954.66
2023-05-17T07:23:29.011Z,98961.69
2023-05-17T07:25:57.504Z,98955.31
2023-05-17T07:28:26.374Z,98955.63
2023-05-17T07:30:54.780Z,98957.78
2023-05-17T07:33:26.258Z,98960.06
2023-05-17T07:35:54.971Z,98964.94
2023-05-17T07:38:24.179Z,98959.38
2023-05-17T07:40:54.409Z,98949.72
2023-05-17T07:43:23.502Z,98946.63
2023-05-17T07:45:52.360Z,98961.66
2023-05-17T07:50:49.980Z,98956.22
2023-05-17T07:53:18.532Z,98961.94
2023-05-17T07:55:50.441Z,98953.78
2023-05-17T07:58:20.532Z,98963.25
2023-05-17T08:00:49.519Z,98949.19
2023-05-17T08:03:18.158Z,98948.00
2023-05-17T08:05:46.743Z,98952.38
2023-05-17T08:08:15.738Z,98947.13
2023-05-17T08:10:44.267Z,98944.19
2023-05-17T08:13:13.343Z,98943.03
2023-05-17T08:15:43.548Z,98957.44
2023-05-17T08:18:12.235Z,98957.56
2023-05-17T08:20:41.072Z,98954.28
2023-05-17T08:23:09.618Z,98955.91
2023-05-17T08:25:38.120Z,98947.72
2023-05-17T08:28:07.375Z,98949.72
2023-05-17T08:30:35.914Z,98941.47
2023-05-17T08:33:06.014Z,98943.91
2023-05-17T08:35:34.775Z,98944.38
2023-05-17T08:38:03.620Z,98941.09
2023-05-17T08:40:32.591Z,98941.75
2023-05-17T08:43:04.038Z,98947.16
2023-05-17T08:45:33.496Z,98948.91
2023-05-17T08:48:03.494Z,98965.00
2023-05-17T08:50:36.044Z,98946.16
2023-05-17T08:53:05.591Z,98946.25
2023-05-17T08:55:35.279Z,98947.56
2023-05-17T08:58:07.253Z,98954.41
2023-05-17T09:00:36.938Z,98952.56
2023-05-17T09:03:07.067Z,98946.16
2023-05-17T09:05:37.927Z,98940.56
2023-05-17T09:08:07.648Z,98947.41
2023-05-17T09:10:36.467Z,98950.28
2023-05-17T09:13:04.990Z,98938.00
2023-05-17T09:15:34.404Z,98942.19
2023-05-17T09:18:03.216Z,98939.03
2023-05-17T09:20:34.482Z,98946.28
2023-05-17T09:23:05.349Z,98941.97
2023-05-17T09:25:34.566Z,98934.72
2023-05-17T09:28:04.869Z,98934.56
2023-05-17T09:30:38.177Z,98934.94
2023-05-17T09:33:13.242Z,98939.81
2023-05-17T09:35:44.271Z,98935.59
2023-05-17T09:38:15.369Z,98948.34
2023-05-17T09:40:48.528Z,98936.31
2023-05-17T09:43:25.652Z,98929.56
2023-05-17T09:45:59.408Z,98933.41
2023-05-17T09:48:28.813Z,98938.56
2023-05-17T09:50:57.526Z,98945.28
2023-05-17T09:53:30.191Z,98951.34
2023-05-17T09:56:00.536Z,98957.03
2023-05-17T09:58:33.767Z,98947.81
2023-05-17T10:01:04.860Z,98953.44
2023-05-17T10:03:37.990Z,98943.56
2023-05-17T10:06:13.349Z,98946.47
2023-05-17T10:08:58.295Z,98945.13
2023-05-17T10:11:34.388Z,98951.25
2023-05-17T10:14:12.762Z,98940.66
2023-05-17T10:16:43.307Z,98946.53
2023-05-17T10:19:13.543Z,98937.13
2023-05-17T10:21:43.583Z,98936.03
2023-05-17T10:24:14.808Z,98929.09
2023-05-17T10:26:44.517Z,98920.50
2023-05-17T10:29:13.057Z,98915.44
2023-05-17T10:31:44.889Z,98904.03
2023-05-17T10:34:18.312Z,98904.13
2023-05-17T10:36:47.973Z,98913.56
2023-05-17T10:39:18.262Z,98900.16
2023-05-17T10:41:50.767Z,98908.38
2023-05-17T10:44:21.689Z,98915.81
2023-05-17T10:46:55.420Z,98895.06
2023-05-17T10:49:27.548Z,98905.06
2023-05-17T10:51:57.995Z,98901.53
2023-05-17T10:54:38.818Z,98897.19
2023-05-17T10:57:09.814Z,98898.06
2023-05-17T10:59:57.805Z,98883.22
2023-05-17T11:02:27.780Z,98887.19
2023-05-17T11:04:58.080Z,98878.03
2023-05-17T11:07:33.946Z,98887.50
2023-05-17T11:10:14.061Z,98880.72
2023-05-17T11:12:46.037Z,98877.72
2023-05-17T11:15:16.425Z,98880.88
2023-05-17T11:17:54.190Z,98875.50
2023-05-17T11:20:39.019Z,98878.06
2023-05-17T11:23:18.881Z,98872.69
2023-05-17T11:25:52.121Z,98879.38
2023-05-17T11:28:23.278Z,98876.75
2023-05-17T11:30:53.702Z,98873.78
2023-05-17T11:33:40.346Z,98881.34
2023-05-17T11:36:20.479Z,98881.38
2023-05-17T11:39:10.966Z,98874.13
2023-05-17T11:41:49.976Z,98880.03
2023-05-17T11:44:25.295Z,98880.06
2023-05-17T11:47:02.968Z,98889.16
2023-05-17T11:49:36.726Z,98885.88
2023-05-17T11:52:07.451Z,98877.28
2023-05-17T11:54:41.308Z,98870.00
2023-05-17T11:57:12.953Z,98874.09
2023-05-17T11:59:43.136Z,98870.91
2023-05-17T12:02:11.928Z,98863.72
2023-05-17T12:04:40.895Z,98871.88
2023-05-17T12:07:11.725Z,98862.81
2023-05-17T12:09:41.080Z,98867.66
2023-05-17T12:12:11.883Z,98871.09
2023-05-17T12:14:44.071Z,98879.84
2023-05-17T12:17:24.337Z,98872.50
2023-05-17T12:19:55.414Z,98878.44
2023-05-17T12:22:24.475Z,98870.56
2023-05-17T12:24:53.512Z,98849.00
2023-05-17T12:27:29.964Z,98871.91
2023-05-17T12:29:58.434Z,98869.19
2023-05-17T12:32:27.169Z,98872.59
2023-05-17T12:34:55.823Z,98877.91
2023-05-17T12:37:24.831Z,98867.47
2023-05-17T12:39:53.303Z,98861.25
2023-05-17T12:42:21.916Z,98873.69
2023-05-17T12:44:52.564Z,98869.13
2023-05-17T12:47:21.082Z,98871.75
2023-05-17T12:49:55.420Z,98870.34
2023-05-17T12:52:23.963Z,98869.34
2023-05-17T12:54:53.105Z,98874.97
2023-05-17T12:57:22.232Z,98867.91
2023-05-17T12:59:54.526Z,98850.13
2023-05-17T13:02:24.109Z,98850.13
2023-05-17T13:04:52.869Z,98859.88
2023-05-17T13:07:25.541Z,98856.63
2023-05-17T13:09:54.273Z,98859.47
2023-05-17T13:12:25.951Z,98853.25
2023-05-17T13:14:56.384Z,98852.03
2023-05-17T13:17:40.682Z,98867.09
2023-05-17T13:20:11.238Z,98867.66
2023-05-17T13:22:46.536Z,98865.00
2023-05-17T13:25:15.965Z,98866.63
2023-05-17T13:27:48.584Z,98863.00
2023-05-17T13:30:19.171Z,98857.72
2023-05-17T13:32:48.028Z,98857.31
2023-05-17T13:35:17.170Z,98847.59
2023-05-17T13:37:46.234Z,98844.00
2023-05-17T13:40:17.256Z,98846.84
2023-05-17T13:42:46.271Z,98849.09
2023-05-17T13:45:14.750Z,98841.41
2023-05-17T13:47:44.717Z,98838.94
2023-05-17T13:50:17.426Z,98832.84
2023-05-17T13:52:46.492Z,98846.84
2023-05-17T13:55:15.067Z,98850.09
2023-05-17T13:57:45.655Z,98839.94
2023-05-17T14:00:16.274Z,98838.34
2023-05-17T14:02:46.216Z,98837.34
2023-05-17T14:05:15.539Z,98825.56
2023-05-17T14:07:44.528Z,98821.91
2023-05-17T14:10:14.070Z,98821.69
2023-05-17T14:12:42.629Z,98823.50
2023-05-17T14:15:12.499Z,98816.81
2023-05-17T14:17:41.347Z,98816.19
2023-05-17T14:20:14.174Z,98808.88
2023-05-17T14:22:43.497Z,98819.88
2023-05-17T14:25:12.580Z,98828.56
2023-05-17T14:27:41.119Z,98833.06
2023-05-17T14:30:13.516Z,98813.16
2023-05-17T14:32:43.026Z,98816.19
2023-05-17T14:35:12.956Z,98813.50
2023-05-17T14:37:41.986Z,98813.56
2023-05-17T14:40:12.204Z,98818.00
2023-05-17T14:42:41.068Z,98805.38
2023-05-17T14:45:11.864Z,98806.16
2023-05-17T14:47:40.412Z,98808.38
2023-05-17T14:50:09.833Z,98809.00
2023-05-17T14:52:39.853Z,98805.50
2023-05-17T14:55:09.362Z,98805.69
2023-05-17T14:57:39.075Z,98808.84
2023-05-17T15:00:10.620Z,98811.47
2023-05-17T15:02:40.078Z,98816.00
2023-05-17T15:05:11.177Z,98809.31
2023-05-17T15:07:41.146Z,98812.16
2023-05-17T15:10:13.017Z,98807.88
2023-05-17T15:12:41.577Z,98800.81
2023-05-17T15:15:12.124Z,98804.19
2023-05-17T15:17:40.680Z,98805.28
2023-05-17T15:20:11.555Z,98790.03
2023-05-17T15:22:41.558Z,98802.47
2023-05-17T15:25:10.556Z,98799.72
2023-05-17T15:27:38.982Z,98793.66
2023-05-17T15:30:11.274Z,98792.84
2023-05-17T15:32:41.994Z,98790.56
2023-05-17T15:35:11.407Z,98795.09
2023-05-17T15:37:41.285Z,98796.38
2023-05-17T15:40:12.289Z,98794.00
2023-05-17T15:42:41.007Z,98788.50
2023-05-17T15:45:11.681Z,98790.56
2023-05-17T15:47:43.569Z,98779.19
2023-05-17T15:50:13.084Z,98781.63
2023-05-17T15:52:42.953Z,98786.16
2023-05-17T15:55:12.915Z,98779.41
2023-05-17T15:57:42.647Z,98775.97
2023-05-17T16:00:13.683Z,98784.22
2023-05-17T16:02:42.130Z,98789.09
2023-05-17T16:05:12.993Z,98780.53
2023-05-17T16:07:43.469Z,98779.72
2023-05-17T16:10:13.117Z,98779.72
2023-05-17T16:12:42.648Z,98777.25
2023-05-17T16:15:11.945Z,98782.13
2023-05-17T16:17:41.673Z,98782.34
2023-05-17T16:20:11.507Z,98782.34
2023-05-17T16:22:45.677Z,98779.09
2023-05-17T16:25:17.048Z,98778.69
2023-05-17T16:27:46.717Z,98780.50
2023-05-17T16:30:16.758Z,98781.50
2023-05-17T16:32:46.442Z,98781.28
2023-05-17T16:35:15.505Z,98788.16
2023-05-17T16:37:46.270Z,98788.16
2023-05-17T16:40:15.027Z,98782.06
2023-05-17T16:42:44.579Z,98790.44
2023-05-17T16:45:13.957Z,98795.91
2023-05-17T16:47:45.752Z,98802.78
2023-05-17T16:50:14.609Z,98799.94
2023-05-17T16:52:45.479Z,98795.50
2023-05-17T16:55:14.514Z,98798.09
2023-05-17T16:57:43.833Z,98791.38
2023-05-17T17:00:14.056Z,98798.31
2023-05-17T17:02:42.608Z,98805.19
2023-05-17T17:05:12.447Z,98797.06
2023-05-17T17:07:42.633Z,98802.50
2023-05-17T17:10:12.880Z,98803.91
2023-05-17T17:12:41.478Z,98810.19
2023-05-17T17:15:11.703Z,98797.22
2023-05-17T17:17:41.651Z,98798.41
2023-05-17T17:20:12.460Z,98795.78
2023-05-17T17:22:41.980Z,98802.72
2023-05-17T17:25:12.321Z,98802.78
2023-05-17T17:27:41.345Z,98802.66
2023-05-17T17:30:11.512Z,98804.06
2023-05-17T17:32:40.136Z,98795.97
2023-05-17T17:35:10.552Z,98796.44
2023-05-17T17:37:39.125Z,98798.47
2023-05-17T17:40:09.541Z,98800.91
2023-05-17T17:42:40.096Z,98801.75
2023-05-17T17:45:10.153Z,98803.78
2023-05-17T17:47:39.271Z,98800.97
2023-05-17T17:50:09.586Z,98800.34
2023-05-17T17:52:38.347Z,98806.88
2023-05-17T17:55:10.285Z,98810.75
2023-05-17T17:57:40.353Z,98812.75
2023-05-17T18:00:11.922Z,98823.94
2023-05-17T18:02:40.991Z,98815.81
2023-05-17T18:05:10.632Z,98821.91
2023-05-17T18:07:40.594Z,98830.44
2023-05-17T18:10:10.976Z,98818.66
2023-05-17T18:12:41.286Z,98820.47
2023-05-17T18:15:11.406Z,98833.06
2023-05-17T18:17:41.619Z,98828.22
2023-05-17T18:20:12.685Z,98820.06
2023-05-17T18:22:41.133Z,98830.63
2023-05-17T18:25:11.482Z,98829.59
2023-05-17T18:27:41.524Z,98834.25
2023-05-17T18:30:12.012Z,98826.75
2023-05-17T18:32:40.700Z,98825.72
2023-05-17T18:35:10.548Z,98830.38
2023-05-17T18:37:39.036Z,98831.78
2023-05-17T18:40:12.333Z,98832.81
2023-05-17T18:42:42.529Z,98826.66
2023-05-17T18:45:12.038Z,98826.44
2023-05-17T18:47:40.582Z,98819.94
2023-05-17T18:50:10.277Z,98816.28
2023-05-17T18:52:39.856Z,98823.53
2023-05-17T18:55:08.774Z,98827.38
2023-05-17T18:57:37.427Z,98825.72
2023-05-17T19:00:10.109Z,98835.63
2023-05-17T19:02:38.611Z,98832.97
2023-05-17T19:05:08.688Z,98836.78
2023-05-17T19:07:38.216Z,98839.59
2023-05-17T19:10:08.117Z,98838.97
2023-05-17T19:12:36.579Z,98838.88
2023-05-17T19:15:09.624Z,98841.91
2023-05-17T19:17:38.159Z,98847.94
2023-05-17T19:20:08.498Z,98853.34
2023-05-17T19:22:36.952Z,98848.44
2023-05-17T19:25:06.642Z,98851.03
2023-05-17T19:27:35.117Z,98850.91
2023-05-17T19:30:04.562Z,98852.88
2023-05-17T19:32:34.957Z,98858.09
2023-05-17T19:35:03.510Z,98853.78
2023-05-17T19:37:31.954Z,98857.56
2023-05-17T19:40:00.880Z,98858.72
2023-05-17T19:42:29.455Z,98860.03
2023-05-17T19:44:57.964Z,98873.38
2023-05-17T19:47:27.193Z,98864.16
2023-05-17T19:49:57.029Z,98865.53
2023-05-17T19:52:25.551Z,98872.53
2023-05-17T19:54:54.008Z,98868.41
2023-05-17T19:57:22.431Z,98869.41
2023-05-17T19:59:52.275Z,98869.06
2023-05-17T20:02:21.134Z,98877.50
2023-05-17T20:04:49.775Z,98885.31
2023-05-17T20:07:25.519Z,98885.84
2023-05-17T20:09:54.361Z,98881.13
2023-05-17T20:12:24.245Z,98891.72
2023-05-17T20:14:52.906Z,98891.09
2023-05-17T20:17:22.229Z,98879.31
2023-05-17T20:19:51.923Z,98881.94
2023-05-17T20:22:22.417Z,98889.34
2023-05-17T20:24:50.942Z,98884.47
2023-05-17T20:27:19.477Z,98885.38
2023-05-17T20:29:47.916Z,98895.16
2023-05-17T20:32:16.525Z,98887.28
2023-05-17T20:34:45.073Z,98899.94
2023-05-17T20:37:13.588Z,98901.84
2023-05-17T20:39:43.496Z,98903.19
2023-05-17T20:42:18.265Z,98904.56
2023-05-17T20:44:48.188Z,98905.91
2023-05-17T20:47:16.665Z,98894.13
2023-05-17T20:49:46.622Z,98910.38
2023-05-17T20:52:17.862Z,98908.78
2023-05-17T20:54:49.712Z,98899.63
2023-05-17T20:57:18.212Z,98907.50
2023-05-17T20:59:46.667Z,98910.47
2023-05-17T21:02:15.175Z,98901.78
2023-05-17T21:04:45.419Z,98908.53
2023-05-17T21:07:13.931Z,98905.94
2023-05-17T21:09:42.387Z,98909.25
2023-05-17T21:12:12.170Z,98913.88
2023-05-17T21:14:40.680Z,98914.50
2023-05-17T21:17:10.776Z,98910.25
2023-05-17T21:19:40.424Z,98910.72
2023-05-17T21:22:08.886Z,98911.88
2023-05-17T21:24:37.347Z,98908.44
2023-05-17T21:27:06.744Z,98920.09
2023-05-17T21:29:36.586Z,98921.09
2023-05-17T21:32:06.008Z,98925.88
2023-05-17T21:34:34.956Z,98932.53
2023-05-17T21:37:03.469Z,98924.66
2023-05-17T21:39:32.492Z,98924.00
2023-05-17T21:42:00.967Z,98924.44
2023-05-17T21:44:29.482Z,98918.88
2023-05-17T21:46:59.966Z,98921.38
2023-05-17T21:49:29.243Z,98918.81
2023-05-17T21:51:57.609Z,98917.34
2023-05-17T21:54:27.450Z,98924.75
2023-05-17T21:56:55.952Z,98926.84
2023-05-17T21:59:24.991Z,98923.94
2023-05-17T22:01:56.007Z,98930.69
2023-05-17T22:04:26.163Z,98927.09
2023-05-17T22:06:54.800Z,98920.75
2023-05-17T22:09:23.330Z,98929.94
2023-05-17T22:11:52.510Z,98928.81
2023-05-17T22:14:20.974Z,98922.94
2023-05-17T22:16:49.988Z,98933.41
2023-05-17T22:19:19.766Z,98930.16
2023-05-17T22:21:51.099Z,98930.31
2023-05-17T22:24:19.967Z,98933.28
2023-05-17T22:26:48.489Z,98935.88
2023-05-17T22:29:16.972Z,98937.69
2023-05-17T22:31:47.437Z,98938.66
2023-05-17T22:34:15.980Z,98926.56
2023-05-17T22:36:44.514Z,98931.34
2023-05-17T22:39:14.345Z,98935.44
2023-05-17T22:41:42.811Z,98925.28
2023-05-17T22:44:11.890Z,98931.03
2023-05-17T22:46:42.630Z,98928.25
2023-05-17T22:49:11.252Z,98926.19
2023-05-17T22:51:40.463Z,98933.22
2023-05-17T22:54:09.031Z,98930.59
2023-05-17T22:56:40.135Z,98938.31
2023-05-17T22:59:08.679Z,98937.19
2023-05-17T23:01:37.777Z,98937.84
2023-05-17T23:04:06.944Z,98938.47
2023-05-17T23:06:35.512Z,98938.00
2023-05-17T23:09:06.116Z,98942.72
2023-05-17T23:11:35.944Z,98944.56
2023-05-17T23:14:06.502Z,98943.41
2023-05-17T23:16:36.101Z,98933.28
2023-05-17T23:19:05.216Z,98934.41
2023-05-17T23:21:33.717Z,98934.75
2023-05-17T23:24:02.229Z,98940.13
2023-05-17T23:26:31.345Z,98943.41
2023-05-17T23:29:03.880Z,98946.16
2023-05-17T23:31:34.943Z,98940.78
2023-05-17T23:34:03.854Z,98942.38
2023-05-17T23:36:32.293Z,98948.75
2023-05-17T23:39:01.354Z,98940.41
2023-05-17T23:41:30.475Z,98940.06
2023-05-17T23:44:00.615Z,98950.84
2023-05-17T23:46:29.128Z,98938.91
2023-05-17T23:48:59.073Z,98942.00
2023-05-17T23:51:27.618Z,98932.53
2023-05-17T23:53:56.357Z,98936.75
2023-05-17T23:56:24.868Z,98937.06
2023-05-17T23:58:54.608Z,98942.44
